Terminal Aerodrome Forecast
Issued by NWS

Home | Current Version | Previous Version | Text Only | Print | Product List | Glossary On
Versions: 1 2 3 4 5 6 7 8 9 10 11 12
058
FTUS44 KTSA 121134
TAFFYV
TAF
KFYV 121134Z 1212/1312 34009KT P6SM SKC
     FM122000 29008KT P6SM SKC
     FM130100 21003KT P6SM FEW100=

USA.gov is the U.S. government's official web portal to all federal, state and local government web resources and services.